Lobo

Go HERE for most recent data if this page is not up to date.

Jump to table bottom
Date/Time Temp deg F RH % 24 Hr Snow (in) Snow Depth (in) H2O (in)
04/05 19:00 30.3 64 -0.0 69.3 0.00
04/05 18:00 31.6 56 -0.0 69.3 0.00
04/05 17:00 34.0 50 -0.2 69.3 0.00
04/05 16:00 34.3 42 -0.1 69.5 0.00
04/05 15:00 34.1 46 -0.3 69.9 0.00
04/05 14:00 34.7 43 -0.2 70.3 0.00
04/05 13:00 33.4 42 -0.2 70.5 0.00
04/05 12:00 30.7 49 -0.0 71.0 0.00
04/05 11:00 27.1 61 0.0 71.2 0.00
04/05 10:00 25.9 68 0.0 71.2 0.00
04/05 09:00 25.1 68 0.0 71.2 0.00
04/05 08:00 24.9 71 0.1 71.3 0.00
04/05 07:00 25.1 71 0.0 71.2 0.00
04/05 06:00 26.0 65 0.1 71.3 0.00
04/05 05:00 25.6 56 0.2 71.4 0.00
04/05 04:00 22.1 57 0.2 71.5 0.00
04/05 03:00 21.2 59 0.1 71.3 0.00
04/05 02:00 21.5 63 0.0 71.3 0.00
04/05 01:00 21.9 53 0.1 71.4 0.00
04/05 00:00 21.8 56 0.0 71.4 0.00
04/04 23:00 23.1 54 0.0 71.3 0.00
04/04 22:00 23.7 54 0.1 71.5 0.00
04/04 21:00 24.1 50 0.0 71.5 0.00
04/04 20:00 24.3 46 0.1 71.5 0.00
04/04 19:00 24.6 48 0.0 71.5 0.00
04/04 18:00 25.2 41 0.0 71.5 0.00
04/04 17:00 26.4 38 -0.0 71.4 0.00
04/04 16:00 26.7 28 -0.1 71.4 0.00
04/04 15:00 26.9 25 -0.2 71.6 0.00
04/04 14:00 26.1 27 -0.2 71.8 0.00
04/04 13:00 24.7 28 -0.2 72.0 0.00
04/04 12:00 23.4 32 -0.1 72.2 0.00
04/04 11:00 21.0 36 -0.0 72.3 0.00
04/04 10:00 18.4 44 0.2 72.7 0.00
04/04 09:00 14.9 52 0.2 72.7 0.00
04/04 08:00 12.9 58 0.1 72.7 0.00
04/04 07:00 13.4 56 0.1 72.7 0.00
04/04 06:00 13.5 58 0.1 72.7 0.00
04/04 05:00 13.5 56 0.0 72.7 0.00
04/04 04:00 14.2 58 0.0 72.7 0.00
04/04 03:00 14.4 58 0.0 72.7 0.00
04/04 02:00 14.1 64 0.0 72.7 0.00
04/04 01:00 14.2 69 0.0 72.7 0.00
04/04 00:00 14.5 71 0.0 72.8 0.00
.